Time;durP1;ratioP1;P1;durP2;ratioP2;P2;SDS_P1;SDS_P2;PMS_P1;PMS_P2;Temp;Humidity;BMP_temperature;BMP_pressure;BME280_temperature;BME280_humidity;BME280_pressure;Samples;Min_cycle;Max_cycle;Signal;HPM_P1;HPM_P2
2023/02/12 00:00:09;;;;;;;28.17;19.87;;;2.50;99.90;;;;;;5083826;28;20280;-81
2023/02/12 00:02:34;;;;;;;31.47;20.43;;;2.50;99.90;;;;;;5088576;28;20073;-81
2023/02/12 00:05:00;;;;;;;30.67;20.43;;;2.30;99.90;;;;;;5104327;28;20028;-82
2023/02/12 00:07:30;;;;;;;31.40;18.90;;;2.20;99.90;;;;;;5105833;28;20023;-81
2023/02/12 00:09:55;;;;;;;27.83;18.73;;;2.10;99.90;;;;;;5106379;28;20051;-82
2023/02/12 00:12:21;;;;;;;22.83;17.13;;;2.10;99.90;;;;;;5103897;28;20413;-82
2023/02/12 00:14:46;;;;;;;25.83;17.57;;;2.10;99.90;;;;;;5106683;28;20115;-82
2023/02/12 00:17:12;;;;;;;25.40;16.70;;;2.10;99.90;;;;;;5086562;28;20463;-82
2023/02/12 00:19:38;;;;;;;27.77;17.67;;;2.10;99.90;;;;;;5104417;28;20036;-82
2023/02/12 00:22:03;;;;;;;29.17;17.70;;;2.10;99.90;;;;;;5106721;28;20020;-82
2023/02/12 00:24:29;;;;;;;26.07;17.53;;;2.20;99.90;;;;;;5103729;28;20418;-82
2023/02/12 00:26:54;;;;;;;24.10;15.77;;;2.30;99.90;;;;;;5106200;28;20475;-81
2023/02/12 00:29:20;;;;;;;21.13;14.80;;;2.30;99.90;;;;;;5104443;28;20141;-81
2023/02/12 00:31:46;;;;;;;23.43;14.50;;;2.40;99.90;;;;;;5108897;28;20094;-81
2023/02/12 00:34:11;;;;;;;25.77;16.93;;;2.40;99.90;;;;;;5103267;28;20028;-82
2023/02/12 00:36:37;;;;;;;29.23;19.13;;;2.40;99.90;;;;;;5085349;28;20502;-82
2023/02/12 00:39:03;;;;;;;23.07;16.10;;;2.30;99.90;;;;;;5105549;28;20032;-81
2023/02/12 00:41:29;;;;;;;22.70;15.60;;;2.30;99.90;;;;;;5102572;28;20052;-81
2023/02/12 00:43:55;;;;;;;23.20;15.83;;;2.30;99.90;;;;;;5084095;28;20032;-82
2023/02/12 00:46:21;;;;;;;23.90;16.50;;;2.30;99.90;;;;;;5106515;28;20034;-81
2023/02/12 00:48:46;;;;;;;21.73;15.20;;;2.30;99.90;;;;;;5085148;28;20028;-82
2023/02/12 00:51:12;;;;;;;22.57;15.90;;;2.30;99.90;;;;;;5086683;28;20040;-82
2023/02/12 00:53:38;;;;;;;23.73;16.07;;;2.30;99.90;;;;;;5104953;28;20041;-82
2023/02/12 00:56:04;;;;;;;27.57;17.60;;;2.30;99.90;;;;;;5103026;28;20031;-82
2023/02/12 00:58:33;;;;;;;25.83;18.10;;;2.30;99.90;;;;;;5096755;28;20115;-82
2023/02/12 01:00:58;;;;;;;27.90;17.80;;;2.40;99.90;;;;;;5078966;28;20115;-75
2023/02/12 01:03:24;;;;;;;25.13;18.33;;;2.30;99.90;;;;;;5119045;27;20154;-75
2023/02/12 01:05:50;;;;;;;29.87;19.27;;;2.30;99.90;;;;;;5101110;28;20440;-75
2023/02/12 01:08:16;;;;;;;28.17;19.40;;;2.30;99.90;;;;;;5094522;28;20024;-75
2023/02/12 01:10:43;;;;;;;26.70;16.73;;;2.20;99.90;;;;;;5102655;28;20181;-75
2023/02/12 01:13:12;;;;;;;28.20;17.43;;;2.10;99.90;;;;;;5087941;28;20085;-75
2023/02/12 01:15:38;;;;;;;27.00;17.20;;;2.10;99.90;;;;;;5101458;28;20023;-75
2023/02/12 01:18:07;;;;;;;22.43;16.47;;;2.20;99.90;;;;;;5100709;28;20039;-75
2023/02/12 01:20:36;;;;;;;23.03;15.97;;;2.20;99.90;;;;;;5083137;28;20133;-75
2023/02/12 01:23:01;;;;;;;22.00;15.30;;;2.30;99.90;;;;;;5084338;28;20024;-75
2023/02/12 01:25:27;;;;;;;22.17;15.90;;;2.30;99.90;;;;;;5105227;28;20042;-75
2023/02/12 01:27:53;;;;;;;21.97;15.47;;;2.30;99.90;;;;;;5084178;28;20023;-75
2023/02/12 01:30:21;;;;;;;26.80;15.93;;;2.30;99.90;;;;;;5106019;28;20028;-75
2023/02/12 01:32:50;;;;;;;23.17;15.77;;;2.30;99.90;;;;;;5102728;28;20506;-75
2023/02/12 01:35:16;;;;;;;26.67;15.73;;;2.40;99.90;;;;;;5090245;28;20027;-75
2023/02/12 01:37:42;;;;;;;21.67;14.80;;;2.40;99.90;;;;;;5081812;28;20487;-75
2023/02/12 01:40:12;;;;;;;20.07;13.63;;;2.40;99.90;;;;;;5077931;28;20077;-75
2023/02/12 01:42:39;;;;;;;19.23;14.03;;;2.40;99.90;;;;;;5104189;28;20107;-75
2023/02/12 01:45:13;;;;;;;20.17;14.80;;;2.30;99.90;;;;;;5101968;28;20048;-75
2023/02/12 01:47:40;;;;;;;23.03;14.87;;;2.30;99.90;;;;;;5098671;28;20051;-75
2023/02/12 01:50:10;;;;;;;19.60;13.53;;;2.40;99.90;;;;;;5083328;28;20020;-75
2023/02/12 01:52:42;;;;;;;21.47;14.47;;;2.40;99.90;;;;;;5083493;28;20034;-75
2023/02/12 01:55:09;;;;;;;21.77;14.13;;;2.40;99.90;;;;;;5094596;28;20514;-75
2023/02/12 01:57:39;;;;;;;19.00;12.33;;;2.40;99.90;;;;;;5073754;28;20043;-75
2023/02/12 02:00:09;;;;;;;16.17;12.13;;;2.50;99.90;;;;;;5100452;28;20028;-75
2023/02/12 02:02:38;;;;;;;16.73;11.57;;;2.50;99.90;;;;;;5084339;28;20023;-75
2023/02/12 02:05:04;;;;;;;17.93;11.33;;;2.50;99.90;;;;;;5095473;28;20671;-75
2023/02/12 02:07:30;;;;;;;15.67;11.43;;;2.50;99.90;;;;;;5098300;28;20559;-75
2023/02/12 02:09:56;;;;;;;14.97;11.37;;;2.50;99.90;;;;;;5077240;28;20425;-75
2023/02/12 02:15:08;;;;;;;18.50;12.03;;;2.50;99.90;;;;;;5102197;28;20039;-75
2023/02/12 02:17:42;;;;;;;16.93;11.70;;;2.60;99.90;;;;;;5082690;28;20027;-75
2023/02/12 02:20:27;;;;;;;17.97;11.60;;;2.60;99.90;;;;;;5098475;28;20020;-75
2023/02/12 02:22:55;;;;;;;15.53;11.87;;;2.70;99.90;;;;;;5096426;28;20031;-75
2023/02/12 02:25:50;;;;;;;18.10;12.37;;;2.70;99.90;;;;;;5101611;28;20574;-75
2023/02/12 02:28:22;;;;;;;19.13;12.83;;;2.70;99.90;;;;;;5099864;28;20028;-75
2023/02/12 02:31:08;;;;;;;16.83;11.63;;;2.70;99.90;;;;;;5099892;28;20038;-75
2023/02/12 02:33:46;;;;;;;17.07;11.13;;;2.70;99.90;;;;;;5080614;28;20028;-75
2023/02/12 02:36:42;;;;;;;13.50;10.33;;;2.70;99.90;;;;;;5075254;28;20384;-75
2023/02/12 02:39:24;;;;;;;16.20;11.67;;;2.70;99.90;;;;;;5093819;28;20074;-75
2023/02/12 02:41:54;;;;;;;;;;;2.70;99.90;;;;;;5097217;28;20020;-75
2023/02/12 02:44:49;;;;;;;18.87;12.87;;;2.70;99.90;;;;;;5102148;28;20355;-75
2023/02/12 02:47:19;;;;;;;15.47;11.67;;;2.70;99.90;;;;;;5083543;28;20023;-75
2023/02/12 02:49:53;;;;;;;19.10;13.00;;;2.60;99.90;;;;;;5096811;28;20024;-75
2023/02/12 02:52:24;;;;;;;19.93;13.43;;;2.70;99.90;;;;;;5082378;28;20063;-75
2023/02/12 02:55:04;;;;;;;18.10;12.50;;;2.70;99.90;;;;;;5081669;28;20024;-75
2023/02/12 02:57:39;;;;;;;19.33;12.60;;;2.70;99.90;;;;;;5078306;28;20052;-75
2023/02/12 03:00:17;;;;;;;16.53;12.10;;;2.70;99.90;;;;;;5096147;28;20371;-75
2023/02/12 03:02:49;;;;;;;15.90;11.77;;;2.70;99.90;;;;;;5081573;28;20429;-75
2023/02/12 03:05:30;;;;;;;21.30;12.50;;;2.70;99.90;;;;;;5096606;28;20482;-75
2023/02/12 03:08:07;;;;;;;16.67;10.83;;;2.70;99.90;;;;;;5078537;28;20107;-75
2023/02/12 03:10:38;;;;;;;19.43;12.07;;;2.70;99.90;;;;;;5100131;28;20498;-75
2023/02/12 03:13:10;;;;;;;15.77;11.73;;;2.70;99.90;;;;;;5096896;28;20495;-75
2023/02/12 03:15:48;;;;;;;21.20;13.63;;;2.70;99.90;;;;;;5097513;28;20031;-75
2023/02/12 03:18:21;;;;;;;19.73;13.47;;;2.70;99.90;;;;;;5099325;28;20487;-75
2023/02/12 03:20:56;;;;;;;20.60;13.57;;;2.70;99.90;;;;;;5104796;28;20039;-75
2023/02/12 03:23:27;;;;;;;22.47;14.50;;;2.70;99.90;;;;;;5102350;28;20364;-75
2023/02/12 03:26:19;;;;;;;26.27;16.87;;;2.70;99.90;;;;;;5082719;28;20061;-75
2023/02/12 03:28:45;;;;;;;;;;;2.80;99.90;;;;;;5103407;28;20019;-75
2023/02/12 03:31:53;;;;;;;23.80;16.00;;;2.80;99.90;;;;;;5103991;28;19957;-75
2023/02/12 03:34:30;;;;;;;22.37;15.17;;;2.80;99.90;;;;;;5106422;28;20028;-75
2023/02/12 03:37:07;;;;;;;23.93;15.67;;;2.90;99.90;;;;;;5100592;28;20027;-75
2023/02/12 03:39:57;;;;;;;21.80;14.70;;;2.90;99.90;;;;;;5098350;28;20085;-75
2023/02/12 03:42:33;;;;;;;24.20;16.27;;;2.90;99.90;;;;;;5100856;28;20023;-75
2023/02/12 03:45:04;;;;;;;22.60;16.37;;;2.90;99.90;;;;;;5100113;28;20061;-75
2023/02/12 03:47:47;;;;;;;30.77;16.27;;;2.90;99.90;;;;;;5097043;28;20020;-75
2023/02/12 03:50:20;;;;;;;24.20;15.97;;;2.90;99.90;;;;;;5086917;28;20020;-75
2023/02/12 03:52:48;;;;;;;24.07;16.13;;;2.80;99.90;;;;;;5087482;28;20104;-75
2023/02/12 03:55:17;;;;;;;28.67;17.13;;;2.90;99.90;;;;;;5103584;28;20031;-75
2023/02/12 03:57:58;;;;;;;24.10;15.63;;;2.90;99.90;;;;;;5075554;28;20406;-75
2023/02/12 04:00:25;;;;;;;27.07;15.83;;;2.90;99.90;;;;;;5083374;28;20147;-75
2023/02/12 04:02:53;;;;;;;22.37;15.10;;;2.90;99.90;;;;;;5075713;28;20457;-75
2023/02/12 04:05:24;;;;;;;23.90;16.10;;;2.90;99.90;;;;;;5082426;28;20036;-81
2023/02/12 04:07:52;;;;;;;24.75;16.33;;;2.90;99.90;;;;;;5104156;28;20024;-82
2023/02/12 04:10:49;;;;;;;23.83;16.27;;;2.90;99.90;;;;;;5100540;28;20048;-82
2023/02/12 04:13:20;;;;;;;24.93;16.43;;;2.90;99.90;;;;;;5103361;28;20026;-82
2023/02/12 04:16:17;;;;;;;25.55;17.15;;;3.00;99.90;;;;;;5085393;28;20028;-82
2023/02/12 04:18:50;;;;;;;23.07;16.90;;;2.90;99.90;;;;;;5101165;28;20141;-82
2023/02/12 04:21:21;;;;;;;30.03;18.10;;;2.90;99.90;;;;;;5103660;28;20070;-81
2023/02/12 04:24:09;;;;;;;28.00;18.30;;;2.90;99.90;;;;;;5101216;28;20063;-82
2023/02/12 04:26:34;;;;;;;29.20;19.07;;;2.90;99.90;;;;;;5100449;28;20112;-82
2023/02/12 04:29:37;;;;;;;27.17;16.73;;;2.90;99.90;;;;;;5102412;28;20043;-83
2023/02/12 04:32:43;;;;;;;26.37;17.87;;;3.00;99.90;;;;;;5081645;28;20038;-82
2023/02/12 04:35:30;;;;;;;28.10;18.47;;;2.90;99.90;;;;;;5069408;28;20032;-83
2023/02/12 04:38:04;;;;;;;26.03;18.50;;;2.90;99.90;;;;;;5081387;28;20031;-83
2023/02/12 04:40:30;;;;;;;29.10;20.17;;;2.80;99.90;;;;;;5105857;28;20149;-81
2023/02/12 04:42:56;;;;;;;30.53;18.90;;;2.80;99.90;;;;;;5085145;28;20387;-82
2023/02/12 04:45:28;;;;;;;28.53;18.97;;;2.80;99.90;;;;;;5101194;28;20016;-82
2023/02/12 04:47:54;;;;;;;31.40;19.70;;;2.80;99.90;;;;;;5101156;28;20018;-82
2023/02/12 04:50:20;;;;;;;27.80;19.47;;;2.80;99.90;;;;;;5084425;28;20479;-82
2023/02/12 04:52:49;;;;;;;28.03;19.27;;;2.80;99.90;;;;;;5102672;28;20118;-82
2023/02/12 04:55:15;;;;;;;30.70;19.07;;;2.80;99.90;;;;;;5100600;28;20031;-82
2023/02/12 04:57:42;;;;;;;28.77;20.40;;;2.80;99.90;;;;;;5092928;28;20036;-82
2023/02/12 05:00:12;;;;;;;30.73;20.00;;;2.70;99.90;;;;;;5080979;28;20228;-82
2023/02/12 05:02:38;;;;;;;33.20;21.10;;;2.80;99.90;;;;;;5096303;28;20557;-82
2023/02/12 05:05:04;;;;;;;30.27;20.63;;;2.70;99.90;;;;;;5100253;28;20270;-82
2023/02/12 05:07:30;;;;;;;29.10;19.97;;;2.70;99.90;;;;;;5100947;28;20059;-82
2023/02/12 05:09:56;;;;;;;29.30;20.57;;;2.70;99.90;;;;;;5118296;27;20133;-82
2023/02/12 05:12:21;;;;;;;27.27;19.90;;;2.60;99.90;;;;;;5105176;28;20081;-82
2023/02/12 05:14:47;;;;;;;33.17;21.70;;;2.50;99.90;;;;;;5081447;28;20457;-82
2023/02/12 05:17:13;;;;;;;33.83;21.13;;;2.60;99.90;;;;;;5101532;28;20479;-82
2023/02/12 05:19:41;;;;;;;32.60;21.23;;;2.50;99.90;;;;;;5076677;28;20047;-82
2023/02/12 05:22:07;;;;;;;34.80;21.30;;;2.50;99.90;;;;;;5086036;28;20111;-82
2023/02/12 05:24:32;;;;;;;29.17;20.40;;;2.60;99.90;;;;;;5083519;28;20116;-82
2023/02/12 05:26:58;;;;;;;31.03;20.10;;;2.60;99.90;;;;;;5086035;28;20059;-82
2023/02/12 05:29:26;;;;;;;34.97;21.70;;;2.50;99.90;;;;;;5097881;28;20016;-82
2023/02/12 05:31:52;;;;;;;32.47;21.03;;;2.50;99.90;;;;;;5079876;28;20434;-82
2023/02/12 05:34:19;;;;;;;33.93;20.83;;;2.50;99.90;;;;;;5084110;28;20030;-81
2023/02/12 05:36:44;;;;;;;33.13;22.27;;;2.60;99.90;;;;;;5118205;27;20028;-82
2023/02/12 05:39:10;;;;;;;30.83;21.33;;;2.50;99.90;;;;;;5105145;28;20083;-82
2023/02/12 05:41:35;;;;;;;32.27;22.53;;;2.60;99.90;;;;;;5106414;28;20111;-83
2023/02/12 05:44:02;;;;;;;31.57;21.27;;;2.60;99.90;;;;;;5103658;28;20023;-82
2023/02/12 05:46:28;;;;;;;35.20;22.57;;;2.60;99.90;;;;;;5104432;28;20016;-82
2023/02/12 05:48:54;;;;;;;32.13;22.40;;;2.60;99.90;;;;;;5105307;28;20096;-82
2023/02/12 05:51:23;;;;;;;35.07;22.10;;;2.70;99.90;;;;;;5084161;28;20027;-82
2023/02/12 05:53:51;;;;;;;33.03;22.73;;;2.70;99.90;;;;;;5084744;28;20508;-82
2023/02/12 05:56:19;;;;;;;34.50;23.33;;;2.70;99.90;;;;;;5105155;28;20277;-82
2023/02/12 05:58:48;;;;;;;33.43;22.13;;;2.80;99.90;;;;;;5079635;28;20054;-82
2023/02/12 06:01:23;;;;;;;36.37;23.03;;;2.90;99.90;;;;;;5102304;28;20027;-82
2023/02/12 06:03:49;;;;;;;34.43;23.00;;;2.90;99.90;;;;;;5104619;28;20019;-82
2023/02/12 06:06:15;;;;;;;34.43;22.77;;;3.00;99.90;;;;;;5102069;28;20507;-82
2023/02/12 06:08:41;;;;;;;32.13;22.70;;;3.00;99.90;;;;;;5103200;28;20540;-82
2023/02/12 06:11:11;;;;;;;35.47;23.07;;;3.00;99.90;;;;;;5104819;28;20070;-82
2023/02/12 06:13:37;;;;;;;32.43;22.37;;;3.00;99.90;;;;;;5097431;28;20476;-82
2023/02/12 06:16:03;;;;;;;36.60;23.70;;;3.00;99.90;;;;;;5103712;28;20027;-82
2023/02/12 06:18:29;;;;;;;32.07;22.23;;;3.00;99.90;;;;;;5103213;28;20024;-83
2023/02/12 06:20:55;;;;;;;35.37;22.67;;;3.00;99.90;;;;;;5083712;28;20045;-83
2023/02/12 06:23:22;;;;;;;32.67;22.20;;;3.00;99.90;;;;;;5104307;28;20024;-81
2023/02/12 06:25:49;;;;;;;36.43;22.17;;;3.00;99.90;;;;;;5101930;28;20020;-81
2023/02/12 06:28:15;;;;;;;37.10;23.00;;;3.00;99.90;;;;;;5084249;28;20016;-82
2023/02/12 06:30:42;;;;;;;33.87;21.73;;;3.10;99.90;;;;;;5081973;28;20147;-82
2023/02/12 06:33:08;;;;;;;32.97;21.47;;;3.10;99.90;;;;;;5086019;28;20395;-82
2023/02/12 06:35:35;;;;;;;32.90;21.97;;;3.10;99.90;;;;;;5101600;28;20027;-82
2023/02/12 06:38:00;;;;;;;35.23;22.77;;;3.10;99.90;;;;;;5102770;28;20027;-82
2023/02/12 06:40:26;;;;;;;32.40;21.90;;;3.10;99.90;;;;;;5103592;28;20398;-83
2023/02/12 06:42:52;;;;;;;32.87;21.97;;;3.10;99.90;;;;;;5116669;27;20071;-83
2023/02/12 06:45:20;;;;;;;30.90;22.13;;;3.10;99.90;;;;;;5100215;28;20024;-83
2023/02/12 06:47:49;;;;;;;34.20;22.30;;;3.00;99.90;;;;;;5084046;28;20191;-82
2023/02/12 06:50:15;;;;;;;29.73;21.33;;;3.00;99.90;;;;;;5101137;28;20059;-81
2023/02/12 06:52:41;;;;;;;30.33;21.40;;;3.10;99.90;;;;;;5085739;28;20501;-82
2023/02/12 06:55:06;;;;;;;38.30;22.33;;;3.00;99.90;;;;;;5083158;28;20028;-82
2023/02/12 06:57:32;;;;;;;32.90;20.47;;;3.00;99.90;;;;;;5098673;28;20066;-82
2023/02/12 06:59:58;;;;;;;32.33;21.00;;;3.00;99.90;;;;;;5081589;28;20035;-82
2023/02/12 07:02:23;;;;;;;29.67;20.87;;;3.00;99.90;;;;;;5085367;28;20024;-82
2023/02/12 07:04:49;;;;;;;32.17;21.23;;;3.00;99.90;;;;;;5096946;28;20479;-82
2023/02/12 07:07:15;;;;;;;27.57;20.87;;;3.00;99.90;;;;;;5102747;28;20506;-81
2023/02/12 07:09:40;;;;;;;31.83;21.33;;;3.10;99.90;;;;;;5075081;28;20049;-82
2023/02/12 07:12:07;;;;;;;35.37;23.90;;;3.10;99.90;;;;;;5060895;28;20049;-82
2023/02/12 07:14:33;;;;;;;32.90;21.87;;;3.10;99.90;;;;;;5062040;28;20033;-82
2023/02/12 07:17:02;;;;;;;34.50;22.90;;;3.00;99.90;;;;;;5059644;28;20438;-82
2023/02/12 07:19:28;;;;;;;31.13;20.27;;;3.00;99.90;;;;;;5060289;28;20449;-82
2023/02/12 07:21:54;;;;;;;32.90;20.80;;;3.00;99.90;;;;;;5063060;28;20108;-82
2023/02/12 07:24:20;;;;;;;28.27;19.90;;;3.10;99.90;;;;;;5055158;28;20037;-82
2023/02/12 07:26:46;;;;;;;31.60;20.50;;;3.10;99.90;;;;;;5062859;28;20017;-82
2023/02/12 07:29:12;;;;;;;29.30;20.13;;;3.10;99.90;;;;;;5059115;28;20017;-82
2023/02/12 07:31:40;;;;;;;27.43;18.83;;;3.20;99.90;;;;;;5059469;28;20022;-82
2023/02/12 07:34:06;;;;;;;29.43;19.90;;;3.20;99.90;;;;;;5063181;28;20055;-82
2023/02/12 07:36:32;;;;;;;29.37;20.20;;;3.30;99.90;;;;;;5060643;28;20523;-82
2023/02/12 07:39:00;;;;;;;29.67;20.57;;;3.30;99.90;;;;;;5060627;28;20021;-82
2023/02/12 07:41:34;;;;;;;32.83;20.03;;;3.40;99.90;;;;;;5061357;28;20028;-82
2023/02/12 07:44:09;;;;;;;25.70;18.70;;;3.50;99.90;;;;;;5057596;28;20048;-82
2023/02/12 07:46:43;;;;;;;29.37;19.20;;;3.50;99.90;;;;;;5060320;28;20025;-81
2023/02/12 07:49:15;;;;;;;26.23;18.43;;;3.60;99.90;;;;;;5057738;28;20025;-83
2023/02/12 07:51:41;;;;;;;37.53;19.58;;;3.60;99.90;;;;;;5060479;28;20028;-82
2023/02/12 07:54:07;;;;;;;31.77;20.50;;;3.70;99.90;;;;;;5063311;28;20027;-82
2023/02/12 07:56:34;;;;;;;27.83;20.23;;;3.80;99.90;;;;;;5062468;28;20158;-82
2023/02/12 07:59:09;;;;;;;29.37;19.03;;;3.90;99.90;;;;;;5061089;28;20029;-82
2023/02/12 08:01:37;;;;;;;28.97;19.83;;;3.90;99.90;;;;;;5059157;28;20021;-81
2023/02/12 08:04:08;;;;;;;31.53;21.30;;;4.00;99.90;;;;;;5060573;28;20543;-81
2023/02/12 08:06:37;;;;;;;31.92;21.20;;;4.00;99.90;;;;;;5065996;28;20074;-82
2023/02/12 08:09:05;;;;;;;33.20;22.37;;;4.00;99.90;;;;;;5066940;28;20103;-82
2023/02/12 08:11:32;;;;;;;30.97;21.40;;;4.10;99.90;;;;;;5086829;28;20128;-82
2023/02/12 08:14:00;;;;;;;33.17;21.90;;;4.10;99.90;;;;;;5086364;28;20085;-82
2023/02/12 08:16:27;;;;;;;29.98;20.25;;;4.10;99.90;;;;;;5106644;28;20440;-81
2023/02/12 08:18:54;;;;;;;35.17;21.23;;;4.20;99.90;;;;;;5100966;28;20451;-82
2023/02/12 08:21:27;;;;;;;30.37;20.40;;;4.20;99.90;;;;;;5104986;28;20432;-82
2023/02/12 08:23:54;;;;;;;30.20;20.85;;;4.30;99.90;;;;;;5084574;28;20036;-82
2023/02/12 08:26:28;;;;;;;32.20;21.17;;;4.30;99.90;;;;;;5087955;28;20386;-82
2023/02/12 08:29:18;;;;;;;29.95;20.48;;;4.30;99.90;;;;;;5081644;28;20070;-82
2023/02/12 08:31:47;;;;;;;31.58;21.52;;;4.40;99.90;;;;;;5105126;28;20391;-82
2023/02/12 08:34:26;;;;;;;29.42;19.48;;;4.40;99.90;;;;;;5099885;28;20028;-82
2023/02/12 08:36:53;;;;;;;29.73;22.02;;;4.40;99.90;;;;;;5103843;28;20031;-82
2023/02/12 08:39:20;;;;;;;34.60;22.65;;;4.50;99.90;;;;;;5098863;28;20085;-81
2023/02/12 08:41:48;;;;;;;30.15;21.42;;;4.50;99.90;;;;;;5105232;28;20027;-82
2023/02/12 08:44:15;;;;;;;31.10;21.80;;;4.70;99.90;;;;;;5105455;28;20355;-82
2023/02/12 08:46:47;;;;;;;36.10;23.08;;;4.70;99.90;;;;;;5102829;28;20063;-82
2023/02/12 08:49:15;;;;;;;32.92;23.42;;;4.70;99.90;;;;;;5105022;28;20494;-81
2023/02/12 08:51:43;;;;;;;38.70;25.40;;;4.70;99.90;;;;;;5102339;28;20032;-82
2023/02/12 08:54:12;;;;;;;38.28;25.02;;;4.80;99.90;;;;;;5087942;28;20035;-82
2023/02/12 08:56:38;;;;;;;39.08;25.95;;;4.80;99.90;;;;;;5102293;28;20085;-82
2023/02/12 08:59:05;;;;;;;43.25;26.48;;;4.80;99.90;;;;;;5101761;28;20024;-82
2023/02/12 09:01:37;;;;;;;39.55;26.80;;;5.00;99.90;;;;;;5102668;28;20503;-81
2023/02/12 09:04:04;;;;;;;41.03;25.58;;;5.10;99.90;;;;;;5079576;28;20052;-82
2023/02/12 09:06:32;;;;;;;40.80;26.27;;;5.10;99.90;;;;;;5106783;28;20020;-82
2023/02/12 09:08:58;;;;;;;39.70;26.30;;;5.20;99.90;;;;;;5103209;28;20021;-82
2023/02/12 09:11:31;;;;;;;45.47;26.77;;;5.20;99.90;;;;;;5085778;28;20047;-82
2023/02/12 09:13:59;;;;;;;44.17;26.83;;;5.30;99.90;;;;;;5085178;28;20479;-82
2023/02/12 09:16:26;;;;;;;42.63;27.65;;;5.50;99.90;;;;;;5106439;28;20031;-82
2023/02/12 09:18:52;;;;;;;41.22;27.23;;;5.70;99.90;;;;;;5102393;28;20399;-81
2023/02/12 09:21:18;;;;;;;43.83;26.50;;;5.70;99.90;;;;;;5102570;28;20020;-82
2023/02/12 09:23:50;;;;;;;42.92;26.92;;;5.90;99.90;;;;;;5106553;28;20031;-82
2023/02/12 09:26:19;;;;;;;40.97;27.08;;;6.00;99.90;;;;;;5083691;28;20031;-81
2023/02/12 09:28:46;;;;;;;39.33;26.75;;;6.20;99.90;;;;;;5100063;28;20364;-80
2023/02/12 09:31:15;;;;;;;39.92;27.67;;;6.10;99.90;;;;;;5099521;28;20489;-83
2023/02/12 09:33:41;;;;;;;45.03;28.90;;;6.10;99.90;;;;;;5105351;28;20032;-83
2023/02/12 09:36:13;;;;;;;43.20;27.33;;;6.10;99.90;;;;;;5080259;28;20024;-83
2023/02/12 09:38:40;;;;;;;49.17;28.48;;;6.20;99.90;;;;;;5105967;28;20027;-82
2023/02/12 09:41:26;;;;;;;45.28;28.38;;;6.20;99.90;;;;;;5102273;28;20543;-82
2023/02/12 09:43:58;;;;;;;43.63;28.13;;;6.30;99.90;;;;;;5084912;28;20111;-82
2023/02/12 09:46:37;;;;;;;39.88;28.02;;;6.30;99.90;;;;;;5099043;28;20026;-83
2023/02/12 09:49:10;;;;;;;45.30;28.52;;;6.30;99.90;;;;;;5101881;28;20028;-82
2023/02/12 09:51:38;;;;;;;46.67;29.25;;;6.30;99.90;;;;;;5085636;28;20020;-83
2023/02/12 09:54:17;;;;;;;44.10;28.98;;;6.30;99.90;;;;;;5085798;28;20428;-83
2023/02/12 09:56:47;;;;;;;47.90;30.75;;;6.30;99.90;;;;;;5099600;28;20013;-82
2023/02/12 09:59:32;;;;;;;46.90;30.13;;;6.50;99.90;;;;;;5082751;28;20082;-83
2023/02/12 10:01:58;;;;;;;50.50;31.27;;;6.70;99.90;;;;;;5103437;28;20400;-83
2023/02/12 10:04:26;;;;;;;44.85;30.35;;;6.80;99.90;;;;;;5101211;28;20016;-82
2023/02/12 10:07:10;;;;;;;60.28;38.80;;;6.70;99.90;;;;;;5101476;28;20257;-83
2023/02/12 10:10:03;;;;;;;51.78;32.55;;;6.90;99.90;;;;;;5100442;28;20067;-82
2023/02/12 10:12:53;;;;;;;44.45;29.92;;;7.00;99.90;;;;;;5079844;28;20024;-82
2023/02/12 10:15:26;;;;;;;47.47;30.65;;;7.00;99.90;;;;;;5081108;28;20027;-82
2023/02/12 10:18:03;;;;;;;50.03;32.35;;;7.00;99.90;;;;;;5101672;28;20474;-83
2023/02/12 10:21:02;;;;;;;50.97;31.67;;;7.00;99.90;;;;;;5099966;28;20052;-83
2023/02/12 10:23:31;;;;;;;52.90;31.60;;;7.10;99.90;;;;;;5103109;28;20024;-82
2023/02/12 10:26:16;;;;;;;48.33;31.05;;;7.20;99.90;;;;;;5080408;28;20082;-83
2023/02/12 10:28:43;;;;;;;50.15;32.97;;;7.30;99.90;;;;;;5081792;28;20028;-83
2023/02/12 10:31:38;;;;;;;47.97;31.65;;;7.30;99.90;;;;;;5084058;28;20024;-82
2023/02/12 10:34:18;;;;;;;47.83;31.20;;;7.40;99.90;;;;;;5085225;28;20109;-82
2023/02/12 10:36:46;;;;;;;46.58;30.85;;;7.60;99.90;;;;;;5099035;28;20095;-82
2023/02/12 10:39:22;;;;;;;47.38;31.10;;;7.60;99.90;;;;;;5102082;28;20024;-82
2023/02/12 10:42:08;;;;;;;54.08;35.28;;;7.60;99.90;;;;;;5098122;28;20111;-83
2023/02/12 10:44:34;;;;;;;49.50;31.35;;;7.70;99.90;;;;;;5079269;28;20684;-82
2023/02/12 10:47:00;;;;;;;45.25;30.52;;;7.70;99.90;;;;;;5102891;28;20030;-83
2023/02/12 10:49:29;;;;;;;45.08;29.55;;;7.80;99.90;;;;;;5102906;28;20031;-82
2023/02/12 10:52:09;;;;;;;42.00;29.02;;;7.70;99.90;;;;;;5100744;28;20024;-83
2023/02/12 10:54:42;;;;;;;42.42;27.92;;;7.90;99.90;;;;;;5083387;28;20024;-83
2023/02/12 10:57:16;;;;;;;44.05;28.67;;;7.90;99.90;;;;;;5099891;28;20042;-82
2023/02/12 10:59:44;;;;;;;38.08;27.90;;;8.00;99.90;;;;;;5086071;28;20387;-82
2023/02/12 11:02:23;;;;;;;45.20;29.20;;;8.10;99.60;;;;;;5100699;28;20420;-82
2023/02/12 11:04:49;;;;;;;40.75;27.45;;;8.10;99.70;;;;;;5083018;28;20415;-83
2023/02/12 11:07:15;;;;;;;43.90;27.75;;;8.30;99.70;;;;;;5082410;28;20493;-82
2023/02/12 11:09:46;;;;;;;40.30;26.52;;;8.60;97.80;;;;;;5103821;28;20048;-83
2023/02/12 11:12:29;;;;;;;40.50;26.40;;;8.90;96.30;;;;;;5084197;28;20443;-82
2023/02/12 11:15:03;;;;;;;41.38;27.23;;;8.90;96.80;;;;;;5064883;28;20029;-83
2023/02/12 11:17:38;;;;;;;45.90;29.33;;;8.80;96.90;;;;;;5100691;28;20073;-83
2023/02/12 11:20:19;;;;;;;43.63;29.08;;;9.00;95.90;;;;;;5099413;28;20024;-83
2023/02/12 11:22:52;;;;;;;39.35;27.70;;;9.10;96.10;;;;;;5092601;28;20047;-82
2023/02/12 11:25:17;;;;;;;89.47;50.25;;;9.10;95.00;;;;;;5102743;28;20483;-83
2023/02/12 11:27:43;;;;;;;53.53;31.05;;;9.20;94.40;;;;;;5100296;28;20055;-83
2023/02/12 11:30:09;;;;;;;41.72;26.20;;;9.40;94.00;;;;;;5097113;28;20023;-82
2023/02/12 11:32:36;;;;;;;39.65;25.80;;;9.40;93.90;;;;;;5082976;28;20035;-83
2023/02/12 11:35:22;;;;;;;39.33;27.65;;;9.40;93.00;;;;;;5083667;28;20024;-83
2023/02/12 11:37:49;;;;;;;44.55;28.48;;;9.50;93.40;;;;;;5102643;28;20068;-82
2023/02/12 11:40:20;;;;;;;45.63;28.55;;;9.60;93.20;;;;;;5086050;28;20470;-82
2023/02/12 11:42:53;;;;;;;47.35;29.95;;;9.80;93.90;;;;;;5101359;28;20514;-82
2023/02/12 11:45:21;;;;;;;43.72;27.98;;;9.90;94.00;;;;;;5104864;28;20017;-82
2023/02/12 11:47:47;;;;;;;46.20;30.75;;;9.90;92.80;;;;;;5089088;28;20490;-82
2023/02/12 11:50:30;;;;;;;49.80;31.58;;;10.00;92.40;;;;;;5104672;28;20031;-82
2023/02/12 11:53:03;;;;;;;45.00;29.77;;;10.10;92.40;;;;;;5085571;28;20020;-82
2023/02/12 11:55:33;;;;;;;47.22;29.75;;;10.20;92.70;;;;;;5087425;28;20020;-82
2023/02/12 11:58:20;;;;;;;47.08;29.83;;;10.10;92.20;;;;;;5087354;28;20024;-82
2023/02/12 12:00:52;;;;;;;51.13;33.65;;;10.10;91.90;;;;;;5087264;28;20478;-82
2023/02/12 12:03:33;;;;;;;47.90;28.77;;;10.10;90.80;;;;;;5101859;28;20020;-81
2023/02/12 12:06:36;;;;;;;47.38;29.35;;;10.10;91.00;;;;;;5088998;28;20072;-81
2023/02/12 12:09:22;;;;;;;48.88;30.42;;;10.10;91.40;;;;;;5103896;28;20038;-80
2023/02/12 12:12:03;;;;;;;57.92;33.03;;;10.10;90.70;;;;;;5085526;28;20036;-80
2023/02/12 12:20:54;;;;;;;65.40;40.22;;;10.50;91.70;;;;;;5102191;28;20174;-80
2023/02/12 12:23:28;;;;;;;59.47;38.08;;;10.60;91.50;;;;;;5101818;28;20095;-80
2023/02/12 12:26:00;;;;;;;57.42;37.15;;;10.60;91.50;;;;;;5103763;28;20021;-80
2023/02/12 12:28:39;;;;;;;58.42;35.88;;;10.70;91.10;;;;;;5102535;28;20024;-80
2023/02/12 12:31:10;;;;;;;65.07;36.47;;;10.80;90.40;;;;;;5103158;28;20031;-80
2023/02/12 12:33:46;;;;;;;59.20;36.97;;;10.80;90.10;;;;;;5105345;28;20028;-80
2023/02/12 12:36:12;;;;;;;59.85;38.42;;;10.70;90.50;;;;;;5106412;28;20032;-81
2023/02/12 12:38:56;;;;;;;56.88;37.33;;;10.70;90.60;;;;;;5085386;28;20096;-80
2023/02/12 12:42:01;;;;;;;62.83;36.80;;;10.80;90.50;;;;;;5096592;28;20028;-79
2023/02/12 12:44:48;;;;;;;63.30;37.47;;;10.80;90.20;;;;;;5104005;28;20024;-79
2023/02/12 12:47:25;;;;;;;56.28;35.17;;;10.80;89.60;;;;;;5104000;28;20024;-80
2023/02/12 12:50:12;;;;;;;56.00;34.40;;;10.90;89.20;;;;;;5074437;28;20035;-80
2023/02/12 12:53:16;;;;;;;47.42;32.47;;;11.00;88.50;;;;;;5100801;28;20031;-80
2023/02/12 12:56:02;;;;;;;54.67;32.85;;;10.80;87.80;;;;;;5103270;28;20096;-80
2023/02/12 12:59:04;;;;;;;52.97;33.85;;;10.80;87.70;;;;;;5076792;28;20027;-80
2023/02/12 13:01:38;;;;;;;64.13;37.63;;;10.80;86.10;;;;;;5082021;28;20030;-80
2023/02/12 13:04:34;;;;;;;55.42;36.10;;;10.80;87.80;;;;;;5105838;28;20030;-79
2023/02/12 13:07:00;;;;;;;80.88;57.55;;;10.80;89.00;;;;;;5099741;28;20024;-80